Time;durP1;ratioP1;P1;durP2;ratioP2;P2;SDS_P1;SDS_P2;PMS_P1;PMS_P2;Temp;Humidity;BMP_temperature;BMP_pressure;BME280_temperature;BME280_humidity;BME280_pressure;Samples;Min_cycle;Max_cycle;Signal;HPM_P1;HPM_P2
2021/04/06 00:01:47;;;;;;;11.35;6.12;;;5.10;69.70;;;;;;1748527;82;21129;-69
2021/04/06 00:04:19;;;;;;;9.85;5.75;;;5.20;69.00;;;;;;1748530;82;21165;-68
2021/04/06 00:06:55;;;;;;;10.35;6.17;;;5.10;69.60;;;;;;1748518;82;21111;-68
2021/04/06 00:09:27;;;;;;;11.57;6.20;;;5.00;69.20;;;;;;1748500;81;21140;-68
2021/04/06 00:12:00;;;;;;;12.07;6.20;;;5.00;70.40;;;;;;1748651;82;21133;-67
2021/04/06 00:14:31;;;;;;;11.73;6.20;;;5.00;70.60;;;;;;1749151;82;21134;-67
2021/04/06 00:17:02;;;;;;;9.95;6.05;;;5.00;70.60;;;;;;1753947;81;21568;-67
2021/04/06 00:19:35;;;;;;;12.88;6.33;;;5.00;70.00;;;;;;1778411;81;21173;-68
2021/04/06 00:22:05;;;;;;;10.48;6.00;;;5.00;69.90;;;;;;1779331;81;21182;-68
2021/04/06 00:24:37;;;;;;;11.95;6.30;;;5.00;70.00;;;;;;1779431;80;21290;-69
2021/04/06 00:27:18;;;;;;;13.13;6.60;;;4.90;70.40;;;;;;1779309;80;21276;-68
2021/04/06 00:29:54;;;;;;;11.35;6.67;;;4.90;70.60;;;;;;1779482;80;21142;-69
2021/04/06 00:32:27;;;;;;;13.68;7.08;;;5.00;71.20;;;;;;1779327;80;21146;-69
2021/04/06 00:34:58;;;;;;;12.50;6.85;;;5.10;70.00;;;;;;1779803;81;21572;-68
2021/04/06 00:37:28;;;;;;;14.18;6.95;;;5.00;70.30;;;;;;1779516;80;21134;-68
2021/04/06 00:40:10;;;;;;;12.35;5.87;;;4.90;70.20;;;;;;1779284;80;21332;-69
2021/04/06 00:42:40;;;;;;;10.78;5.85;;;4.80;71.20;;;;;;1779150;80;21300;-68
2021/04/06 00:45:13;;;;;;;11.85;6.20;;;4.90;72.70;;;;;;1779384;81;21145;-67
2021/04/06 00:47:41;;;;;;;11.78;6.12;;;4.90;71.70;;;;;;1779306;80;21272;-68
2021/04/06 00:50:14;;;;;;;11.83;6.40;;;5.00;71.50;;;;;;1779295;80;21719;-68
2021/04/06 00:52:45;;;;;;;10.10;5.70;;;5.00;71.50;;;;;;1779307;80;21264;-68
2021/04/06 00:55:40;;;;;;;9.30;5.05;;;5.10;70.70;;;;;;1779473;81;21517;-67
2021/04/06 00:58:14;;;;;;;12.53;6.33;;;5.10;70.50;;;;;;1779942;80;21133;-67
2021/04/06 01:00:43;;;;;;;11.40;5.90;;;5.00;70.00;;;;;;1779291;81;21257;-67
2021/04/06 01:03:17;;;;;;;10.05;5.90;;;4.80;71.20;;;;;;1779905;80;21158;-67
2021/04/06 01:06:05;;;;;;;11.15;6.30;;;4.80;71.30;;;;;;1779871;81;21568;-67
2021/04/06 01:08:36;;;;;;;13.88;6.00;;;4.70;71.40;;;;;;1761472;80;21600;-67
2021/04/06 01:11:06;;;;;;;11.28;6.08;;;4.70;71.30;;;;;;1779958;80;21150;-67
2021/04/06 01:13:35;;;;;;;11.70;6.47;;;4.60;71.90;;;;;;1779858;80;21168;-68
2021/04/06 01:16:05;;;;;;;13.00;7.17;;;4.60;71.60;;;;;;1779244;80;21141;-68
2021/04/06 01:18:34;;;;;;;12.15;6.72;;;4.60;71.80;;;;;;1779389;80;21138;-68
2021/04/06 01:21:11;;;;;;;13.53;7.35;;;4.80;71.90;;;;;;1779320;80;21723;-69
2021/04/06 01:23:39;;;;;;;;;;;4.90;71.60;;;;;;1782618;80;21186;-69
2021/04/06 01:26:12;;;;;;;14.03;7.45;;;5.00;71.10;;;;;;1785592;80;20131;-68
2021/04/06 01:28:40;;;;;;;14.25;7.37;;;5.00;70.70;;;;;;1785645;80;21121;-67
2021/04/06 01:31:10;;;;;;;13.20;7.40;;;5.00;70.70;;;;;;1785548;80;21146;-68
2021/04/06 01:33:38;;;;;;;12.80;7.12;;;5.00;71.10;;;;;;1785125;80;21140;-69
2021/04/06 01:36:09;;;;;;;12.03;6.72;;;5.00;70.90;;;;;;1785041;80;21162;-69
2021/04/06 01:38:40;;;;;;;13.20;6.55;;;5.00;71.00;;;;;;1785090;80;21283;-69
2021/04/06 01:41:08;;;;;;;10.25;5.67;;;5.00;70.90;;;;;;1785557;80;21167;-69
2021/04/06 01:43:46;;;;;;;10.85;5.80;;;4.80;72.00;;;;;;1785280;80;21149;-69
2021/04/06 01:46:19;;;;;;;9.93;5.65;;;4.70;72.30;;;;;;1784621;80;21280;-69
2021/04/06 01:48:48;;;;;;;11.63;5.60;;;4.70;71.30;;;;;;1785650;80;21153;-69
2021/04/06 01:51:20;;;;;;;9.30;4.90;;;4.70;71.50;;;;;;1785122;80;21145;-69
2021/04/06 01:53:49;;;;;;;10.40;5.37;;;4.70;73.10;;;;;;1785052;80;21289;-69
2021/04/06 01:56:29;;;;;;;9.73;5.47;;;4.70;72.80;;;;;;1785113;80;21710;-69
2021/04/06 01:59:04;;;;;;;9.80;5.45;;;4.70;72.70;;;;;;1785278;80;21137;-69
2021/04/06 02:01:29;;;;;;;9.43;5.30;;;4.60;73.20;;;;;;1784267;80;21280;-69
2021/04/06 02:04:02;;;;;;;11.22;5.83;;;4.60;74.00;;;;;;1785281;80;21157;-68
2021/04/06 02:06:31;;;;;;;10.45;6.08;;;4.60;73.90;;;;;;1784996;80;21146;-68
2021/04/06 02:09:00;;;;;;;13.83;5.78;;;4.60;74.30;;;;;;1785164;80;21144;-69
2021/04/06 02:11:34;;;;;;;9.90;5.53;;;4.70;74.30;;;;;;1785098;80;21137;-69
2021/04/06 02:14:15;;;;;;;10.40;5.80;;;4.70;73.90;;;;;;1784685;80;21168;-69
2021/04/06 02:17:03;;;;;;;11.03;6.42;;;4.70;73.70;;;;;;1785012;80;21284;-69
2021/04/06 02:19:38;;;;;;;11.65;6.25;;;4.60;73.80;;;;;;1784991;80;21256;-69
2021/04/06 02:22:14;;;;;;;11.68;5.92;;;4.70;74.20;;;;;;1784543;80;21150;-69
2021/04/06 02:24:51;;;;;;;10.75;5.75;;;4.70;73.70;;;;;;1784961;80;21165;-69
2021/04/06 02:27:27;;;;;;;10.32;6.03;;;4.70;73.10;;;;;;1784903;80;21256;-69
2021/04/06 02:30:01;;;;;;;16.02;6.67;;;4.60;73.20;;;;;;1784885;80;21291;-69
2021/04/06 02:32:32;;;;;;;10.03;5.70;;;4.40;73.60;;;;;;1784798;80;21287;-69
2021/04/06 02:35:05;;;;;;;14.40;5.97;;;4.40;74.00;;;;;;1784964;80;21117;-70
2021/04/06 02:37:43;;;;;;;11.10;5.92;;;4.30;75.00;;;;;;1785062;80;21675;-70
2021/04/06 02:40:15;;;;;;;10.15;5.33;;;4.30;74.50;;;;;;1785477;80;21117;-70
2021/04/06 02:42:46;;;;;;;8.85;5.42;;;4.20;74.90;;;;;;1784923;80;21145;-69
2021/04/06 02:45:24;;;;;;;9.58;5.55;;;4.20;75.20;;;;;;1784860;80;21287;-68
2021/04/06 02:48:05;;;;;;;11.03;6.35;;;4.20;75.30;;;;;;1785094;80;21130;-68
2021/04/06 02:50:35;;;;;;;12.05;5.65;;;4.30;75.40;;;;;;1785615;80;21533;-69
2021/04/06 02:53:08;;;;;;;13.40;5.87;;;4.40;74.80;;;;;;1784982;80;21303;-69
2021/04/06 02:55:38;;;;;;;14.03;5.87;;;4.30;75.10;;;;;;1785106;80;21300;-69
2021/04/06 02:58:16;;;;;;;10.75;5.80;;;4.20;75.10;;;;;;1784999;80;21639;-69
2021/04/06 03:00:44;;;;;;;12.88;5.83;;;4.20;75.90;;;;;;1785002;80;21276;-69
2021/04/06 03:03:28;;;;;;;14.43;6.17;;;4.30;75.80;;;;;;1784900;80;21307;-68
2021/04/06 03:06:05;;;;;;;11.85;5.87;;;4.30;75.50;;;;;;1785502;80;21154;-67
2021/04/06 03:08:34;;;;;;;13.35;6.12;;;4.20;75.70;;;;;;1785658;80;21157;-67
2021/04/06 03:11:04;;;;;;;12.20;6.12;;;4.20;76.20;;;;;;1785043;80;21141;-67
2021/04/06 03:13:33;;;;;;;12.00;6.45;;;4.10;76.30;;;;;;1784936;80;21170;-68
2021/04/06 03:16:04;;;;;;;9.58;5.47;;;4.10;76.60;;;;;;1785564;80;21156;-68
2021/04/06 03:18:36;;;;;;;9.95;5.20;;;3.90;76.60;;;;;;1785283;80;21109;-68
2021/04/06 03:21:09;;;;;;;10.50;5.30;;;3.90;77.20;;;;;;1784192;80;21174;-68
2021/04/06 03:23:38;;;;;;;8.75;4.87;;;3.90;77.90;;;;;;1784904;80;21295;-66
2021/04/06 03:26:07;;;;;;;10.32;4.87;;;3.80;77.40;;;;;;1785169;80;21161;-67
2021/04/06 03:28:40;;;;;;;8.55;5.22;;;3.80;77.70;;;;;;1784827;80;21134;-67
2021/04/06 03:31:15;;;;;;;9.45;5.37;;;3.90;78.00;;;;;;1785433;80;21129;-67
2021/04/06 03:33:46;;;;;;;10.23;5.30;;;4.00;77.70;;;;;;1785057;80;21305;-67
2021/04/06 03:36:22;;;;;;;9.58;5.30;;;4.00;77.70;;;;;;1785171;80;21153;-67
2021/04/06 03:38:54;;;;;;;9.05;5.10;;;4.10;78.10;;;;;;1784859;80;21156;-68
2021/04/06 03:41:29;;;;;;;10.45;5.80;;;4.10;77.90;;;;;;1784952;80;21287;-68
2021/04/06 03:44:12;;;;;;;12.30;5.80;;;4.20;77.00;;;;;;1784961;80;21319;-68
2021/04/06 03:46:42;;;;;;;9.15;5.33;;;4.20;77.70;;;;;;1785331;80;21552;-68
2021/04/06 03:49:23;;;;;;;16.12;6.35;;;4.20;77.60;;;;;;1785172;80;21133;-68
2021/04/06 03:51:57;;;;;;;14.30;6.15;;;4.10;77.50;;;;;;1785106;80;21134;-68
2021/04/06 03:54:44;;;;;;;11.30;5.90;;;4.20;77.00;;;;;;1775899;80;21101;-69
2021/04/06 03:57:46;;;;;;;14.65;6.75;;;4.20;76.60;;;;;;1754056;81;21139;-69
2021/04/06 04:00:11;;;;;;;14.73;7.05;;;4.20;75.80;;;;;;1752588;82;21725;-70
2021/04/06 04:02:40;;;;;;;12.50;7.33;;;4.10;75.60;;;;;;1754336;82;21552;-69
2021/04/06 04:05:09;;;;;;;15.10;7.03;;;4.00;76.40;;;;;;1754186;82;21574;-68
2021/04/06 04:07:38;;;;;;;13.83;7.53;;;4.10;76.40;;;;;;1754334;82;21148;-69
2021/04/06 04:10:08;;;;;;;15.83;6.90;;;4.10;76.40;;;;;;1754129;81;21140;-69
2021/04/06 04:12:36;;;;;;;12.37;6.55;;;4.10;76.10;;;;;;1754416;81;21164;-69
2021/04/06 04:15:06;;;;;;;8.95;5.42;;;4.10;76.40;;;;;;1754152;81;21206;-69
2021/04/06 04:17:34;;;;;;;9.45;5.37;;;3.90;76.80;;;;;;1754418;82;21158;-68
2021/04/06 04:20:11;;;;;;;11.03;5.45;;;3.90;77.60;;;;;;1754129;81;21128;-68
2021/04/06 04:22:39;;;;;;;11.10;6.35;;;4.00;79.00;;;;;;1754552;81;21439;-68
2021/04/06 04:25:12;;;;;;;13.43;6.78;;;4.10;78.30;;;;;;1755091;82;21176;-68
2021/04/06 04:27:42;;;;;;;19.45;8.35;;;4.20;78.00;;;;;;1756714;82;21594;-68
2021/04/06 04:30:12;;;;;;;20.40;9.85;;;4.30;76.60;;;;;;1757020;82;21562;-68
2021/04/06 04:32:41;;;;;;;22.73;9.53;;;4.30;75.70;;;;;;1756574;82;21551;-68
2021/04/06 04:35:10;;;;;;;23.92;10.78;;;4.40;75.00;;;;;;1756528;82;21740;-69
2021/04/06 04:37:38;;;;;;;22.35;10.00;;;4.40;74.30;;;;;;1756600;81;21144;-68
2021/04/06 04:40:08;;;;;;;16.73;9.28;;;4.40;74.50;;;;;;1756622;81;21113;-68
2021/04/06 04:42:35;;;;;;;17.52;8.05;;;4.40;75.40;;;;;;1756498;81;21125;-68
2021/04/06 04:45:07;;;;;;;15.50;7.72;;;4.30;75.70;;;;;;1756513;82;21169;-69
2021/04/06 04:47:35;;;;;;;12.18;7.45;;;4.30;77.00;;;;;;1757136;81;21184;-68
2021/04/06 04:50:04;;;;;;;13.32;7.25;;;4.30;77.30;;;;;;1762633;80;21132;-69
2021/04/06 04:52:32;;;;;;;16.42;7.35;;;4.30;77.90;;;;;;1778757;80;21133;-68
2021/04/06 04:55:00;;;;;;;14.70;7.33;;;4.30;76.70;;;;;;1776339;81;21135;-67
2021/04/06 04:57:28;;;;;;;15.53;8.15;;;4.40;76.90;;;;;;1776942;80;21126;-67
2021/04/06 04:59:55;;;;;;;20.97;8.68;;;4.40;77.40;;;;;;1775926;80;21145;-69
2021/04/06 05:02:24;;;;;;;14.07;7.60;;;4.40;77.40;;;;;;1775911;80;21205;-68
2021/04/06 05:04:51;;;;;;;15.50;7.70;;;4.50;78.00;;;;;;1780484;80;21634;-68
2021/04/06 05:07:19;;;;;;;16.23;9.35;;;4.60;77.30;;;;;;1774981;80;21153;-68
2021/04/06 05:09:47;;;;;;;13.53;8.68;;;4.60;76.30;;;;;;1776679;80;21147;-68
2021/04/06 05:12:15;;;;;;;14.70;8.68;;;4.70;77.10;;;;;;1781165;79;21494;-68
2021/04/06 05:14:56;;;;;;;16.55;7.60;;;4.90;75.60;;;;;;1788964;79;21557;-68
2021/04/06 05:17:24;;;;;;;31.42;14.93;;;5.00;74.20;;;;;;1762627;81;21155;-69
2021/04/06 05:19:52;;;;;;;33.15;15.75;;;5.30;74.80;;;;;;1748486;81;21679;-69
2021/04/06 05:22:20;;;;;;;26.45;11.50;;;5.30;74.20;;;;;;1744583;82;21291;-69
2021/04/06 05:24:48;;;;;;;26.52;11.50;;;5.40;73.60;;;;;;1744552;82;21274;-69
2021/04/06 05:27:16;;;;;;;26.60;11.20;;;5.50;72.80;;;;;;1753199;81;21247;-68
2021/04/06 05:29:45;;;;;;;27.40;10.82;;;5.40;72.90;;;;;;1761426;81;21134;-69
2021/04/06 05:32:12;;;;;;;22.40;10.55;;;5.50;72.20;;;;;;1759477;81;21270;-67
2021/04/06 05:34:40;;;;;;;28.47;11.22;;;5.50;72.30;;;;;;1758536;80;21124;-68
2021/04/06 05:37:07;;;;;;;25.90;12.68;;;5.60;73.10;;;;;;1761454;81;21098;-69
2021/04/06 05:39:35;;;;;;;23.42;12.40;;;5.60;72.50;;;;;;1760319;81;21169;-70
2021/04/06 05:42:04;;;;;;;24.95;12.50;;;5.70;73.20;;;;;;1758286;80;21225;-68
2021/04/06 05:44:33;;;;;;;26.07;11.50;;;5.80;71.60;;;;;;1759985;80;21102;-69
2021/04/06 05:47:04;;;;;;;26.42;12.37;;;5.90;72.30;;;;;;1761031;81;21110;-67
2021/04/06 05:49:33;;;;;;;21.82;12.03;;;6.00;71.90;;;;;;1760791;81;21122;-68
2021/04/06 05:52:01;;;;;;;32.85;15.55;;;6.10;71.50;;;;;;1760965;81;21133;-69
2021/04/06 05:54:29;;;;;;;23.40;11.95;;;6.20;71.30;;;;;;1761443;81;21138;-69
2021/04/06 05:56:57;;;;;;;22.17;11.88;;;6.30;70.00;;;;;;1759976;81;21583;-68
2021/04/06 05:59:24;;;;;;;26.20;12.78;;;6.30;70.20;;;;;;1758089;81;21162;-72
2021/04/06 06:01:52;;;;;;;28.00;13.32;;;6.40;69.90;;;;;;1757043;81;21274;-72
2021/04/06 06:04:20;;;;;;;30.45;13.32;;;6.50;70.40;;;;;;1774694;81;21165;-72
2021/04/06 06:06:47;;;;;;;24.82;13.40;;;6.50;70.30;;;;;;1775390;80;21141;-70
2021/04/06 06:09:35;;;;;;;28.57;13.18;;;6.60;69.00;;;;;;1775253;80;21154;-70
2021/04/06 06:12:10;;;;;;;29.10;14.25;;;6.60;69.40;;;;;;1764359;80;21110;-70
2021/04/06 06:14:45;;;;;;;24.15;13.05;;;6.60;69.40;;;;;;1766019;81;21135;-73
2021/04/06 06:17:25;;;;;;;30.70;14.58;;;6.80;69.20;;;;;;1763880;80;21162;-71
2021/04/06 06:19:57;;;;;;;32.88;14.43;;;6.90;68.90;;;;;;1769525;81;21540;-73
2021/04/06 06:22:29;;;;;;;29.80;14.95;;;7.00;68.90;;;;;;1769091;80;21147;-72
2021/04/06 06:25:08;;;;;;;28.75;14.63;;;7.00;68.10;;;;;;1769303;81;21133;-73
2021/04/06 06:27:41;;;;;;;25.65;14.18;;;7.20;67.30;;;;;;1769461;81;21127;-72
2021/04/06 06:30:31;;;;;;;25.12;15.05;;;7.50;65.90;;;;;;1752077;81;21810;-72
2021/04/06 06:33:26;;;;;;;28.92;15.18;;;7.70;64.80;;;;;;1767176;81;21118;-72
2021/04/06 06:36:00;;;;;;;28.00;15.93;;;7.80;64.30;;;;;;1769112;81;21121;-71
2021/04/06 06:38:33;;;;;;;29.72;15.85;;;7.90;63.80;;;;;;1769307;81;21149;-72
2021/04/06 06:41:16;;;;;;;34.48;16.20;;;7.90;64.10;;;;;;1769428;81;21150;-73
2021/04/06 06:43:54;;;;;;;28.35;16.70;;;7.90;64.00;;;;;;1769419;81;21562;-72
2021/04/06 06:46:31;;;;;;;37.50;17.52;;;8.00;63.50;;;;;;1769764;81;21158;-72
2021/04/06 06:49:10;;;;;;;36.15;16.67;;;8.00;63.10;;;;;;1765363;81;21154;-72
2021/04/06 06:51:43;;;;;;;32.35;16.85;;;8.10;62.70;;;;;;1769461;81;21139;-73
2021/04/06 06:54:11;;;;;;;38.28;18.92;;;8.10;62.90;;;;;;1765522;81;21129;-69
2021/04/06 06:56:42;;;;;;;34.65;17.00;;;8.10;63.00;;;;;;1739129;82;21162;-72
2021/04/06 06:59:10;;;;;;;37.13;17.80;;;8.20;63.50;;;;;;1739099;82;21107;-72
2021/04/06 07:01:39;;;;;;;37.10;17.37;;;8.20;62.60;;;;;;1739072;82;21154;-73
2021/04/06 07:04:09;;;;;;;33.10;17.12;;;8.20;62.00;;;;;;1738638;82;21162;-72
2021/04/06 07:06:46;;;;;;;37.30;17.40;;;8.20;63.20;;;;;;1738878;82;21580;-72
2021/04/06 07:09:31;;;;;;;41.13;18.50;;;8.40;62.70;;;;;;1739027;82;21131;-71
2021/04/06 07:12:03;;;;;;;36.98;18.45;;;8.40;62.20;;;;;;1738924;82;21142;-72
2021/04/06 07:14:33;;;;;;;42.70;18.60;;;8.40;61.80;;;;;;1739214;82;21573;-71
2021/04/06 07:17:05;;;;;;;42.10;19.60;;;8.40;62.30;;;;;;1744083;82;21579;-72
2021/04/06 07:19:38;;;;;;;41.28;20.27;;;8.40;62.00;;;;;;1747278;82;21288;-71
2021/04/06 07:22:08;;;;;;;39.90;17.55;;;8.50;62.10;;;;;;1747374;82;21307;-71
2021/04/06 07:24:40;;;;;;;36.93;18.57;;;8.50;62.40;;;;;;1747519;82;21146;-71
2021/04/06 07:27:13;;;;;;;31.82;18.05;;;8.50;61.80;;;;;;1747322;82;21268;-72
2021/04/06 07:29:42;;;;;;;32.73;17.62;;;8.50;62.80;;;;;;1747496;82;21134;-72
2021/04/06 07:32:14;;;;;;;30.70;18.07;;;8.50;62.70;;;;;;1747445;82;21186;-70
2021/04/06 07:34:44;;;;;;;33.00;19.35;;;8.60;63.20;;;;;;1747302;82;21283;-71
2021/04/06 07:37:12;;;;;;;35.23;18.05;;;8.60;62.20;;;;;;1747420;82;21287;-71
2021/04/06 07:39:41;;;;;;;32.85;16.65;;;8.60;63.00;;;;;;1747261;82;21288;-71
2021/04/06 07:42:10;;;;;;;27.87;16.30;;;8.60;62.00;;;;;;1747440;82;21221;-71
2021/04/06 07:44:38;;;;;;;31.90;17.23;;;8.60;62.80;;;;;;1747235;82;21323;-71
2021/04/06 07:47:06;;;;;;;33.25;16.67;;;8.60;62.70;;;;;;1747452;82;21158;-71
2021/04/06 07:49:38;;;;;;;33.02;19.15;;;8.60;62.80;;;;;;1747358;82;21153;-71
2021/04/06 07:52:19;;;;;;;27.67;16.60;;;8.70;62.50;;;;;;1747659;82;21133;-72
2021/04/06 07:54:50;;;;;;;29.10;16.37;;;8.80;62.50;;;;;;1747382;82;21580;-72
2021/04/06 07:57:18;;;;;;;30.00;15.95;;;8.80;62.50;;;;;;1757251;81;21722;-71
2021/04/06 07:59:52;;;;;;;29.80;16.27;;;8.70;63.00;;;;;;1764215;81;21769;-71
2021/04/06 08:02:24;;;;;;;31.70;16.70;;;8.70;62.80;;;;;;1762922;81;21169;-71
2021/04/06 08:05:00;;;;;;;30.77;16.48;;;8.70;63.30;;;;;;1763173;81;21699;-71
2021/04/06 08:07:33;;;;;;;32.67;17.23;;;8.80;63.80;;;;;;1764464;81;21232;-71
2021/04/06 08:10:18;;;;;;;28.42;15.95;;;8.90;63.40;;;;;;1762770;81;21259;-69
2021/04/06 08:12:50;;;;;;;29.72;16.48;;;8.90;63.10;;;;;;1760433;81;21117;-71
2021/04/06 08:15:22;;;;;;;31.25;16.35;;;8.90;63.50;;;;;;1761118;81;21162;-71
2021/04/06 08:17:56;;;;;;;30.80;16.85;;;9.00;63.60;;;;;;1754128;81;21170;-72
2021/04/06 08:20:40;;;;;;;33.33;16.23;;;9.00;64.00;;;;;;1767116;81;21138;-73
2021/04/06 08:23:16;;;;;;;28.35;15.08;;;9.00;63.90;;;;;;1769250;81;21150;-72
2021/04/06 08:25:47;;;;;;;28.07;15.63;;;9.10;65.20;;;;;;1759218;81;21158;-73
2021/04/06 08:28:34;;;;;;;28.45;15.25;;;9.20;64.50;;;;;;1755442;81;21137;-74
2021/04/06 08:31:22;;;;;;;26.60;15.15;;;9.20;64.30;;;;;;1755475;81;21165;-73
2021/04/06 08:33:51;;;;;;;30.88;15.65;;;9.30;64.50;;;;;;1755749;81;21094;-71
2021/04/06 08:36:26;;;;;;;30.25;15.75;;;9.30;64.60;;;;;;1755789;81;21122;-73
2021/04/06 08:38:57;;;;;;;26.33;15.35;;;9.40;64.80;;;;;;1754734;81;21098;-73
2021/04/06 08:41:32;;;;;;;27.32;15.38;;;9.50;64.60;;;;;;1753866;81;21094;-71
2021/04/06 08:44:05;;;;;;;32.33;15.35;;;9.50;64.40;;;;;;1756670;81;21115;-73
2021/04/06 08:46:43;;;;;;;27.87;15.50;;;9.60;64.30;;;;;;1752392;81;21126;-72
2021/04/06 08:49:25;;;;;;;27.60;14.75;;;9.60;64.60;;;;;;1752543;81;21157;-72
2021/04/06 08:51:59;;;;;;;28.83;15.15;;;9.60;64.50;;;;;;1752555;81;21155;-72
2021/04/06 08:54:31;;;;;;;26.12;14.60;;;9.70;64.60;;;;;;1755142;81;21157;-72
2021/04/06 08:57:03;;;;;;;24.50;14.18;;;9.80;64.20;;;;;;1747242;80;21141;-73
2021/04/06 08:59:39;;;;;;;36.00;15.25;;;9.90;64.00;;;;;;1762284;80;21091;-72
2021/04/06 09:02:14;;;;;;;22.75;14.05;;;9.90;64.40;;;;;;1767338;81;21139;-72
2021/04/06 09:04:49;;;;;;;27.20;14.40;;;10.00;64.70;;;;;;1767459;81;21142;-73
2021/04/06 09:07:30;;;;;;;28.07;14.63;;;10.00;64.70;;;;;;1766615;81;21742;-72
2021/04/06 09:10:11;;;;;;;26.90;15.08;;;10.10;64.10;;;;;;1767890;81;21162;-72
2021/04/06 09:12:43;;;;;;;25.05;14.18;;;10.10;63.50;;;;;;1767774;81;21150;-72
2021/04/06 09:15:15;;;;;;;26.12;13.50;;;10.10;63.60;;;;;;1767726;81;21554;-70
2021/04/06 09:17:43;;;;;;;27.25;14.13;;;10.30;64.00;;;;;;1771641;81;21178;-70
2021/04/06 09:20:16;;;;;;;25.97;13.32;;;10.30;63.20;;;;;;1773719;80;21553;-71
2021/04/06 09:22:50;;;;;;;23.50;14.38;;;10.40;63.20;;;;;;1773432;81;21192;-76
2021/04/06 09:25:26;;;;;;;25.50;12.98;;;10.50;61.60;;;;;;1773610;81;21256;-73
2021/04/06 09:28:00;;;;;;;23.35;13.03;;;10.60;62.30;;;;;;1773159;80;21572;-73
2021/04/06 09:30:33;;;;;;;25.50;13.40;;;10.70;61.70;;;;;;1765604;81;21145;-73
2021/04/06 09:33:11;;;;;;;24.63;13.45;;;10.80;61.60;;;;;;1761141;81;21133;-71
2021/04/06 09:35:41;;;;;;;23.38;12.50;;;11.00;61.00;;;;;;1774006;79;21130;-70
2021/04/06 09:38:09;;;;;;;22.42;12.45;;;11.10;59.40;;;;;;1771743;81;21110;-74
2021/04/06 09:40:41;;;;;;;27.22;13.25;;;11.20;59.40;;;;;;1749939;81;21146;-68
2021/04/06 09:43:09;;;;;;;23.32;11.88;;;11.20;59.80;;;;;;1759280;81;21651;-70
2021/04/06 09:45:38;;;;;;;21.85;12.63;;;11.20;59.00;;;;;;1761097;81;21256;-71
2021/04/06 09:48:09;;;;;;;21.68;12.33;;;11.20;58.90;;;;;;1759428;81;21318;-70
2021/04/06 09:50:37;;;;;;;21.17;12.45;;;11.30;58.50;;;;;;1758102;80;21169;-70
2021/04/06 09:53:17;;;;;;;23.25;12.55;;;11.30;58.20;;;;;;1760378;80;21098;-69
2021/04/06 09:55:47;;;;;;;23.22;12.05;;;11.30;57.80;;;;;;1761284;81;21268;-71
2021/04/06 09:58:16;;;;;;;27.77;13.13;;;11.30;58.20;;;;;;1761211;81;21284;-71
2021/04/06 10:00:45;;;;;;;25.25;13.13;;;11.30;57.90;;;;;;1759002;81;21157;-70
2021/04/06 10:03:24;;;;;;;23.47;12.47;;;11.30;58.10;;;;;;1758206;80;21166;-69
2021/04/06 10:05:48;;;;;;;22.20;12.30;;;11.20;58.10;;;;;;1762072;81;21125;-69
2021/04/06 10:08:27;;;;;;;19.75;12.30;;;11.30;58.20;;;;;;1758158;80;21182;-70
2021/04/06 10:10:54;;;;;;;22.32;12.60;;;11.30;57.70;;;;;;1758243;81;21114;-71
2021/04/06 10:13:23;;;;;;;20.85;12.78;;;11.40;57.80;;;;;;1761502;81;21567;-70
2021/04/06 10:16:09;;;;;;;24.98;13.10;;;11.40;58.20;;;;;;1760504;81;21159;-70
2021/04/06 10:18:49;;;;;;;25.90;14.40;;;11.50;58.00;;;;;;1797277;79;27839;-71
2021/04/06 10:21:27;;;;;;;23.85;14.33;;;11.60;57.20;;;;;;1789349;80;21129;-67
2021/04/06 10:24:04;;;;;;;25.85;14.13;;;11.70;58.40;;;;;;1787895;80;21098;-69
2021/04/06 10:26:34;;;;;;;24.60;13.10;;;11.80;57.80;;;;;;1784036;80;21137;-68
2021/04/06 10:29:10;;;;;;;26.42;13.50;;;11.90;57.40;;;;;;1781799;80;21116;-69
2021/04/06 10:31:51;;;;;;;22.13;12.15;;;12.00;57.20;;;;;;1781604;80;21152;-68
2021/04/06 10:34:19;;;;;;;32.95;12.90;;;12.00;57.10;;;;;;1784734;80;21117;-69
2021/04/06 10:36:57;;;;;;;23.42;12.73;;;12.10;56.50;;;;;;1784776;80;21105;-69
2021/04/06 10:39:36;;;;;;;26.33;11.95;;;12.20;56.70;;;;;;1778239;80;21184;-70
2021/04/06 10:42:07;;;;;;;22.20;12.85;;;12.30;57.10;;;;;;1777968;80;21129;-71
2021/04/06 10:44:36;;;;;;;24.45;13.25;;;12.30;55.50;;;;;;1780545;80;21133;-69
2021/04/06 10:47:04;;;;;;;28.30;12.73;;;12.40;55.80;;;;;;1765516;80;21556;-71
2021/04/06 10:49:32;;;;;;;23.12;11.80;;;12.40;55.70;;;;;;1768778;80;21134;-72
2021/04/06 10:52:07;;;;;;;22.13;11.85;;;12.50;55.40;;;;;;1786158;80;21153;-73
2021/04/06 10:54:35;;;;;;;20.92;11.85;;;12.60;54.00;;;;;;1779352;80;21271;-70
2021/04/06 10:57:03;;;;;;;23.27;11.78;;;12.60;54.70;;;;;;1784619;80;21130;-68
2021/04/06 10:59:37;;;;;;;22.02;11.68;;;12.60;54.20;;;;;;1780075;80;21090;-68
2021/04/06 11:02:05;;;;;;;19.40;10.82;;;12.70;53.90;;;;;;1785913;80;21113;-70
2021/04/06 11:04:41;;;;;;;24.07;10.98;;;12.70;52.80;;;;;;1783811;80;21557;-70
2021/04/06 11:07:09;;;;;;;17.48;9.10;;;12.70;53.30;;;;;;1783320;80;21193;-70
2021/04/06 11:09:47;;;;;;;16.42;9.33;;;12.70;53.60;;;;;;1784459;80;21150;-67
2021/04/06 11:12:17;;;;;;;16.57;8.98;;;12.70;52.60;;;;;;1786051;80;21129;-69
2021/04/06 11:14:47;;;;;;;21.37;9.20;;;12.70;52.00;;;;;;1785601;80;21560;-69
2021/04/06 11:17:15;;;;;;;13.03;8.18;;;12.60;51.80;;;;;;1780087;80;21162;-69
2021/04/06 11:19:46;;;;;;;35.58;18.45;;;12.60;52.50;;;;;;1765002;81;21545;-70
2021/04/06 11:22:18;;;;;;;14.85;8.18;;;12.60;51.40;;;;;;1765963;81;21112;-69
2021/04/06 11:24:51;;;;;;;13.15;8.08;;;12.60;51.50;;;;;;1765881;81;21142;-73
2021/04/06 11:27:21;;;;;;;14.73;7.80;;;12.60;51.60;;;;;;1774975;81;21142;-68
2021/04/06 11:29:49;;;;;;;12.53;7.60;;;12.70;51.10;;;;;;1769793;81;21573;-69
2021/04/06 11:32:21;;;;;;;12.40;7.25;;;12.80;51.30;;;;;;1773091;81;21280;-69
2021/04/06 11:34:51;;;;;;;15.13;7.60;;;12.80;51.00;;;;;;1753600;81;21142;-69
2021/04/06 11:37:18;;;;;;;13.68;8.13;;;12.90;51.30;;;;;;1779590;81;21157;-69
2021/04/06 11:39:48;;;;;;;13.30;8.50;;;12.90;51.30;;;;;;1779555;81;21161;-68
2021/04/06 11:42:18;;;;;;;14.13;7.92;;;12.80;50.50;;;;;;1779356;81;21730;-67
2021/04/06 11:44:46;;;;;;;15.05;7.78;;;12.70;50.30;;;;;;1777467;81;21133;-67
2021/04/06 11:47:14;;;;;;;14.38;8.50;;;12.70;49.90;;;;;;1769549;80;21731;-66
2021/04/06 11:49:42;;;;;;;12.82;7.75;;;12.70;50.90;;;;;;1768441;81;21555;-69
2021/04/06 11:52:10;;;;;;;17.10;8.38;;;12.70;51.40;;;;;;1752764;80;21150;-69
2021/04/06 11:54:38;;;;;;;13.78;8.78;;;12.70;51.30;;;;;;1772537;81;21130;-66
2021/04/06 11:57:06;;;;;;;17.85;8.55;;;12.80;51.80;;;;;;1770369;80;21106;-66
2021/04/06 11:59:35;;;;;;;14.68;8.65;;;12.80;52.00;;;;;;1769209;80;21706;-66
2021/04/06 12:02:03;;;;;;;13.10;7.03;;;12.70;51.40;;;;;;1767717;81;21169;-66
2021/04/06 12:04:32;;;;;;;14.35;7.95;;;12.80;50.30;;;;;;1771778;81;21181;-67
2021/04/06 12:07:00;;;;;;;11.45;7.50;;;12.80;51.20;;;;;;1772714;80;21605;-66
2021/04/06 12:09:28;;;;;;;10.95;6.72;;;12.90;50.20;;;;;;1771948;80;21099;-71
2021/04/06 12:11:55;;;;;;;12.23;6.92;;;12.90;50.20;;;;;;1768624;80;21327;-70
2021/04/06 12:14:23;;;;;;;13.22;7.85;;;12.90;50.20;;;;;;1766177;81;21576;-68
2021/04/06 12:16:51;;;;;;;22.07;10.40;;;12.80;50.90;;;;;;1770841;80;21147;-69
2021/04/06 12:19:18;;;;;;;21.48;11.33;;;12.60;52.30;;;;;;1782581;79;21181;-69
2021/04/06 12:21:46;;;;;;;19.42;12.10;;;12.50;54.50;;;;;;1790239;79;21113;-71
2021/04/06 12:24:14;;;;;;;21.25;12.30;;;12.50;55.20;;;;;;1788409;79;21591;-71
2021/04/06 12:26:42;;;;;;;20.60;13.50;;;12.40;56.10;;;;;;1775886;79;21129;-73
2021/04/06 12:29:09;;;;;;;22.98;12.90;;;12.30;56.10;;;;;;1776230;80;21168;-72
2021/04/06 12:31:37;;;;;;;21.80;12.37;;;12.10;56.80;;;;;;1774771;80;21102;-73
2021/04/06 12:34:05;;;;;;;22.15;12.18;;;12.00;57.00;;;;;;1792100;79;21117;-71
2021/04/06 12:36:32;;;;;;;20.17;11.53;;;11.90;57.60;;;;;;1781435;79;21118;-72
2021/04/06 12:39:03;;;;;;;21.62;12.60;;;11.90;56.60;;;;;;1780091;79;21141;-72
2021/04/06 12:41:31;;;;;;;20.68;11.48;;;11.70;56.10;;;;;;1774842;81;21272;-72
2021/04/06 12:43:59;;;;;;;18.85;12.23;;;11.70;56.20;;;;;;1775368;80;21126;-70
2021/04/06 12:46:27;;;;;;;18.10;11.18;;;11.50;56.50;;;;;;1785934;80;21584;-70
2021/04/06 12:48:54;;;;;;;20.57;11.15;;;11.30;56.90;;;;;;1780521;79;21644;-70
2021/04/06 12:51:22;;;;;;;19.23;11.30;;;11.30;57.10;;;;;;1783941;79;21572;-71
2021/04/06 12:53:51;;;;;;;23.20;11.85;;;11.20;58.10;;;;;;1784947;79;21142;-69
2021/04/06 12:56:19;;;;;;;20.10;10.40;;;11.10;58.60;;;;;;1772778;79;21122;-70
2021/04/06 12:58:48;;;;;;;17.57;11.12;;;11.10;58.50;;;;;;1777484;79;21141;-69
2021/04/06 13:01:18;;;;;;;24.27;11.38;;;11.00;58.80;;;;;;1771624;80;21149;-70
2021/04/06 13:03:46;;;;;;;17.30;10.58;;;10.90;59.40;;;;;;1776068;80;21102;-71
2021/04/06 13:06:14;;;;;;;19.20;11.00;;;10.90;59.50;;;;;;1777482;80;21130;-72